createdAt,value
2022-10-08T00:01:16.468Z,99315.13
2022-10-08T00:03:45.688Z,99308.03
2022-10-08T00:06:13.875Z,99306.28
2022-10-08T00:08:43.440Z,99297.34
2022-10-08T00:11:13.492Z,99295.72
2022-10-08T00:13:42.048Z,99292.06
2022-10-08T00:16:23.652Z,99298.19
2022-10-08T00:18:52.573Z,99286.00
2022-10-08T00:21:22.703Z,99287.03
2022-10-08T00:23:51.391Z,99281.84
2022-10-08T00:26:23.690Z,99275.69
2022-10-08T00:28:52.023Z,99270.38
2022-10-08T00:31:22.706Z,99261.53
2022-10-08T00:33:51.759Z,99255.19
2022-10-08T00:36:18.983Z,99262.88
2022-10-08T00:38:45.791Z,99241.41
2022-10-08T00:41:20.880Z,99241.91
2022-10-08T00:43:50.771Z,99238.91
2022-10-08T00:46:29.113Z,99243.03
2022-10-08T00:49:07.135Z,99233.09
2022-10-08T00:51:34.013Z,99234.53
2022-10-08T00:54:02.593Z,99232.56
2022-10-08T00:56:31.490Z,99221.94
2022-10-08T00:58:58.411Z,99226.06
2022-10-08T01:01:25.522Z,99225.81
2022-10-08T01:03:52.310Z,99210.84
2022-10-08T01:06:27.418Z,99206.31
2022-10-08T01:09:03.203Z,99205.38
2022-10-08T01:11:41.106Z,99199.25
2022-10-08T01:14:23.221Z,99206.06
2022-10-08T01:17:00.665Z,99205.06
2022-10-08T01:19:42.768Z,99185.69
2022-10-08T01:22:31.349Z,99193.38
2022-10-08T01:25:34.905Z,99189.91
2022-10-08T01:28:22.991Z,99198.66
2022-10-08T01:31:09.447Z,99188.97
2022-10-08T01:33:55.023Z,99187.28
2022-10-08T01:36:24.690Z,99183.69
2022-10-08T01:38:57.793Z,99183.63
2022-10-08T01:41:26.771Z,99179.31
2022-10-08T01:44:02.172Z,99175.91
2022-10-08T01:46:31.937Z,99179.50
2022-10-08T01:49:08.337Z,99176.84
2022-10-08T01:51:47.271Z,99173.41
2022-10-08T01:54:16.368Z,99175.19
2022-10-08T01:56:46.105Z,99170.91
2022-10-08T01:59:28.568Z,99168.44
2022-10-08T02:01:58.281Z,99169.50
2022-10-08T02:04:33.789Z,99170.56
2022-10-08T02:07:10.013Z,99168.03
2022-10-08T02:09:46.415Z,99172.31
2022-10-08T02:12:14.509Z,99155.59
2022-10-08T02:14:46.275Z,99160.06
2022-10-08T02:17:26.440Z,99162.66
2022-10-08T02:20:32.173Z,99162.84
2022-10-08T02:23:04.525Z,99169.03
2022-10-08T02:25:48.555Z,99163.75
2022-10-08T02:28:29.692Z,99166.44
2022-10-08T02:31:17.977Z,99167.38
2022-10-08T02:33:50.459Z,99174.34
2022-10-08T02:36:26.150Z,99164.88
2022-10-08T02:38:57.653Z,99157.88
2022-10-08T02:41:32.958Z,99160.66
2022-10-08T02:44:06.622Z,99166.84
2022-10-08T02:46:38.888Z,99158.88
2022-10-08T02:49:10.761Z,99161.44
2022-10-08T02:51:45.385Z,99161.44
2022-10-08T02:54:12.659Z,99158.03
2022-10-08T02:56:43.736Z,99154.59
2022-10-08T02:59:11.254Z,99157.13
2022-10-08T03:02:03.751Z,99149.31
2022-10-08T03:04:39.091Z,99152.84
2022-10-08T03:07:06.750Z,99154.69
2022-10-08T03:09:49.926Z,99159.19
2022-10-08T03:12:16.782Z,99156.00
2022-10-08T03:14:47.388Z,99151.09
2022-10-08T03:17:30.840Z,99161.84
2022-10-08T03:19:58.200Z,99153.50
2022-10-08T03:22:25.277Z,99152.94
2022-10-08T03:24:56.604Z,99157.63
2022-10-08T03:27:24.172Z,99156.16
2022-10-08T03:29:56.879Z,99159.16
2022-10-08T03:32:27.492Z,99160.41
2022-10-08T03:34:54.310Z,99154.63
2022-10-08T03:37:21.378Z,99162.81
2022-10-08T03:39:48.395Z,99160.53
2022-10-08T03:42:15.411Z,99165.38
2022-10-08T03:44:42.332Z,99164.94
2022-10-08T03:47:09.283Z,99161.84
2022-10-08T03:49:36.081Z,99156.91
2022-10-08T03:52:02.933Z,99159.81
2022-10-08T03:54:30.028Z,99161.75
2022-10-08T03:56:57.009Z,99151.41
2022-10-08T03:59:23.818Z,99149.00
2022-10-08T04:01:50.933Z,99153.56
2022-10-08T04:04:20.715Z,99156.44
2022-10-08T04:06:51.617Z,99151.44
2022-10-08T04:09:18.417Z,99142.06
2022-10-08T04:11:45.515Z,99151.91
2022-10-08T04:14:12.621Z,99145.13
2022-10-08T04:16:39.626Z,99147.09
2022-10-08T04:19:06.527Z,99147.28
2022-10-08T04:21:33.595Z,99143.03
2022-10-08T04:24:00.794Z,99146.63
2022-10-08T04:26:27.598Z,99151.16
2022-10-08T04:28:54.982Z,99148.72
2022-10-08T04:31:23.581Z,99154.13
2022-10-08T04:33:51.729Z,99152.59
2022-10-08T04:36:21.977Z,99157.97
2022-10-08T04:38:49.395Z,99157.19
2022-10-08T04:41:22.511Z,99164.22
2022-10-08T04:43:49.963Z,99158.16
2022-10-08T04:46:20.028Z,99157.38
2022-10-08T04:48:52.227Z,99153.03
2022-10-08T04:51:20.664Z,99154.00
2022-10-08T04:53:47.710Z,99160.19
2022-10-08T04:56:20.195Z,99153.06
2022-10-08T04:58:48.482Z,99152.63
2022-10-08T05:01:17.736Z,99154.59
2022-10-08T05:03:49.043Z,99150.63
2022-10-08T05:06:18.616Z,99157.84
2022-10-08T05:08:46.453Z,99143.06
2022-10-08T05:11:14.252Z,99155.09
2022-10-08T05:13:42.245Z,99145.91
2022-10-08T05:16:14.063Z,99147.19
2022-10-08T05:18:42.290Z,99141.84
2022-10-08T05:21:17.964Z,99138.13
2022-10-08T05:23:46.194Z,99144.06
2022-10-08T05:26:16.433Z,99141.19
2022-10-08T05:28:44.838Z,99144.16
2022-10-08T05:31:11.813Z,99148.81
2022-10-08T05:33:39.028Z,99145.88
2022-10-08T05:36:07.543Z,99148.06
2022-10-08T05:38:35.551Z,99151.69
2022-10-08T05:41:09.756Z,99149.88
2022-10-08T05:43:36.917Z,99151.91
2022-10-08T05:46:04.249Z,99161.28
2022-10-08T05:48:31.116Z,99154.13
2022-10-08T05:51:04.558Z,99157.09
2022-10-08T05:53:31.757Z,99158.94
2022-10-08T05:56:06.789Z,99162.00
2022-10-08T05:58:36.380Z,99157.22
2022-10-08T06:01:06.210Z,99162.69
2022-10-08T06:03:33.451Z,99157.91
2022-10-08T06:06:08.711Z,99161.28
2022-10-08T06:08:36.844Z,99163.41
2022-10-08T06:11:05.326Z,99158.16
2022-10-08T06:13:32.830Z,99160.59
2022-10-08T06:16:08.935Z,99160.44
2022-10-08T06:18:41.244Z,99162.78
2022-10-08T06:21:10.582Z,99164.47
2022-10-08T06:23:39.247Z,99161.59
2022-10-08T06:26:08.953Z,99165.09
2022-10-08T06:28:38.096Z,99165.13
2022-10-08T06:31:07.242Z,99163.06
2022-10-08T06:33:34.497Z,99154.75
2022-10-08T06:36:06.658Z,99162.50
2022-10-08T06:38:34.128Z,99161.56
2022-10-08T06:41:02.078Z,99146.91
2022-10-08T06:43:28.997Z,99152.56
2022-10-08T06:45:56.809Z,99150.47
2022-10-08T06:48:23.871Z,99148.72
2022-10-08T06:50:58.564Z,99152.84
2022-10-08T06:53:25.829Z,99152.13
2022-10-08T06:55:59.973Z,99147.44
2022-10-08T06:58:27.329Z,99144.25
2022-10-08T07:01:07.366Z,99144.75
2022-10-08T07:03:36.099Z,99152.47
2022-10-08T07:06:05.697Z,99152.09
2022-10-08T07:08:32.923Z,99152.66
2022-10-08T07:11:22.735Z,99145.31
2022-10-08T07:13:49.820Z,99154.69
2022-10-08T07:16:21.264Z,99148.41
2022-10-08T07:18:50.351Z,99145.97
2022-10-08T07:21:19.761Z,99156.28
2022-10-08T07:23:47.223Z,99144.03
2022-10-08T07:26:19.858Z,99141.19
2022-10-08T07:28:56.128Z,99137.00
2022-10-08T07:31:28.292Z,99144.41
2022-10-08T07:33:56.501Z,99133.34
2022-10-08T07:36:24.997Z,99132.56
2022-10-08T07:39:00.504Z,99131.81
2022-10-08T07:41:30.012Z,99125.91
2022-10-08T07:44:01.353Z,99129.16
2022-10-08T07:46:30.242Z,99137.81
2022-10-08T07:48:59.358Z,99137.94
2022-10-08T07:51:27.397Z,99135.03
2022-10-08T07:53:56.759Z,99126.06
2022-10-08T07:56:27.632Z,99123.69
2022-10-08T07:58:54.668Z,99119.72
2022-10-08T08:01:26.574Z,99118.81
2022-10-08T08:03:58.068Z,99116.53
2022-10-08T08:06:26.342Z,99116.72
2022-10-08T08:08:53.660Z,99117.22
2022-10-08T08:11:23.572Z,99105.28
2022-10-08T08:13:52.214Z,99118.31
2022-10-08T08:16:22.252Z,99110.63
2022-10-08T08:18:51.922Z,99104.22
2022-10-08T08:21:27.542Z,99105.84
2022-10-08T08:23:56.572Z,99107.72
2022-10-08T08:26:35.896Z,99104.19
2022-10-08T08:29:11.828Z,99100.97
2022-10-08T08:31:43.421Z,99103.63
2022-10-08T08:34:13.727Z,99096.66
2022-10-08T08:36:42.983Z,99092.50
2022-10-08T08:39:15.435Z,99109.28
2022-10-08T08:42:27.968Z,99092.56
2022-10-08T08:45:04.849Z,99095.50
2022-10-08T08:47:43.784Z,99091.09
2022-10-08T08:50:23.880Z,99082.91
2022-10-08T08:52:51.665Z,99084.13
2022-10-08T08:55:37.273Z,99083.22
2022-10-08T08:58:13.164Z,99083.22
2022-10-08T09:00:45.479Z,99083.13
2022-10-08T09:03:12.417Z,99074.81
2022-10-08T09:05:43.208Z,99080.81
2022-10-08T09:08:16.104Z,99089.16
2022-10-08T09:10:45.153Z,99091.06
2022-10-08T09:13:17.956Z,99089.31
2022-10-08T09:15:45.214Z,99091.81
2022-10-08T09:18:14.687Z,99086.09
2022-10-08T09:20:41.870Z,99086.34
2022-10-08T09:23:29.251Z,99084.59
2022-10-08T09:26:08.874Z,99089.78
2022-10-08T09:28:59.829Z,99085.13
2022-10-08T09:32:02.262Z,99080.19
2022-10-08T09:34:29.320Z,99081.13
2022-10-08T09:37:01.845Z,99080.13
2022-10-08T09:39:31.864Z,99076.72
2022-10-08T09:42:07.844Z,99078.41
2022-10-08T09:44:45.513Z,99065.38
2022-10-08T09:47:20.749Z,99070.16
2022-10-08T09:50:13.327Z,99066.75
2022-10-08T09:52:42.049Z,99069.78
2022-10-08T09:55:16.971Z,99062.88
2022-10-08T09:57:48.424Z,99055.59
2022-10-08T10:00:37.221Z,99062.06
2022-10-08T10:03:06.982Z,99061.06
2022-10-08T10:05:36.403Z,99060.47
2022-10-08T10:08:04.729Z,99062.94
2022-10-08T10:10:45.206Z,99061.44
2022-10-08T10:13:19.873Z,99061.78
2022-10-08T10:16:05.994Z,99041.41
2022-10-08T10:18:39.988Z,99039.72
2022-10-08T10:21:16.301Z,99041.31
2022-10-08T10:24:05.503Z,99031.81
2022-10-08T10:26:40.521Z,99031.22
2022-10-08T10:29:15.034Z,99028.38
2022-10-08T10:32:03.446Z,99025.84
2022-10-08T10:34:35.861Z,99018.00
2022-10-08T10:37:12.390Z,99017.50
2022-10-08T10:39:49.680Z,99003.84
2022-10-08T10:42:33.618Z,99000.34
2022-10-08T10:45:17.169Z,98997.44
2022-10-08T10:47:44.191Z,99004.78
2022-10-08T10:50:15.492Z,98996.16
2022-10-08T10:52:45.222Z,98986.44
2022-10-08T10:55:18.583Z,98985.84
2022-10-08T10:58:01.897Z,98977.81
2022-10-08T11:00:41.009Z,98966.84
2022-10-08T11:03:13.824Z,98978.41
2022-10-08T11:05:46.279Z,98972.84
2022-10-08T11:08:31.456Z,98974.09
2022-10-08T11:11:21.282Z,98973.13
2022-10-08T11:14:14.657Z,98970.13
2022-10-08T11:17:00.343Z,98959.06
2022-10-08T11:19:57.575Z,98952.78
2022-10-08T11:22:39.069Z,98957.03
2022-10-08T11:25:19.836Z,98960.00
2022-10-08T11:27:57.039Z,98946.75
2022-10-08T11:30:56.280Z,98948.03
2022-10-08T11:33:24.559Z,98952.69
2022-10-08T11:36:15.605Z,98942.41
2022-10-08T11:39:00.123Z,98938.50
2022-10-08T11:41:41.511Z,98939.25
2022-10-08T11:44:11.708Z,98932.00
2022-10-08T11:46:38.577Z,98925.59
2022-10-08T11:49:11.506Z,98926.75
2022-10-08T11:51:46.515Z,98929.19
2022-10-08T11:54:32.285Z,98918.81
2022-10-08T11:58:07.246Z,98919.53
2022-10-08T12:00:28.051Z,98915.38
2022-10-08T12:02:55.974Z,98896.66
2022-10-08T12:05:22.835Z,98910.88
2022-10-08T12:07:53.156Z,98912.25
2022-10-08T12:10:20.156Z,98911.00
2022-10-08T12:12:50.485Z,98904.56
2022-10-08T12:15:23.429Z,98899.28
2022-10-08T12:18:26.034Z,98902.34
2022-10-08T12:21:17.833Z,98896.94
2022-10-08T12:23:45.165Z,98893.59
2022-10-08T12:26:16.126Z,98883.38
2022-10-08T12:28:43.021Z,98875.66
2022-10-08T12:31:40.234Z,98886.06
2022-10-08T12:34:18.253Z,98875.00
2022-10-08T12:36:58.014Z,98880.44
2022-10-08T12:39:45.785Z,98883.22
2022-10-08T12:42:21.012Z,98873.94
2022-10-08T12:45:24.605Z,98865.81
2022-10-08T12:48:16.584Z,98871.31
2022-10-08T12:51:20.658Z,98860.81
2022-10-08T12:53:49.301Z,98867.94
2022-10-08T12:56:26.297Z,98865.59
2022-10-08T12:58:55.780Z,98866.56
2022-10-08T13:01:23.677Z,98855.28
2022-10-08T13:04:17.979Z,98866.94
2022-10-08T13:06:45.629Z,98862.13
2022-10-08T13:09:35.922Z,98860.50
2022-10-08T13:12:07.926Z,98855.34
2022-10-08T13:14:38.585Z,98857.03
2022-10-08T13:17:06.208Z,98859.06
2022-10-08T13:19:38.346Z,98855.88
2022-10-08T13:22:24.688Z,98856.28
2022-10-08T13:24:52.144Z,98849.81
2022-10-08T13:27:37.692Z,98851.34
2022-10-08T13:30:30.331Z,98849.41
2022-10-08T13:33:36.064Z,98842.97
2022-10-08T13:36:03.210Z,98849.81
2022-10-08T13:38:33.770Z,98852.53
2022-10-08T13:41:08.391Z,98849.00
2022-10-08T13:43:36.588Z,98855.25
2022-10-08T13:46:03.356Z,98853.06
2022-10-08T13:48:30.248Z,98847.00
2022-10-08T13:50:57.661Z,98844.59
2022-10-08T13:53:26.579Z,98851.13
2022-10-08T13:55:53.724Z,98847.09
2022-10-08T13:58:21.165Z,98851.31
2022-10-08T14:00:48.799Z,98847.81
2022-10-08T14:03:16.081Z,98858.28
2022-10-08T14:05:46.511Z,98847.25
2022-10-08T14:08:20.218Z,98852.56
2022-10-08T14:10:47.537Z,98849.03
2022-10-08T14:13:15.816Z,98840.25
2022-10-08T14:15:42.996Z,98844.06
2022-10-08T14:18:10.072Z,98847.97
2022-10-08T14:20:37.494Z,98844.50
2022-10-08T14:23:04.529Z,98847.06
2022-10-08T14:25:32.001Z,98844.00
2022-10-08T14:27:59.988Z,98842.47
2022-10-08T14:30:27.685Z,98839.81
2022-10-08T14:32:54.960Z,98839.69
2022-10-08T14:35:22.190Z,98847.75
2022-10-08T14:40:20.687Z,98835.31
2022-10-08T14:42:48.179Z,98834.31
2022-10-08T14:45:15.402Z,98834.03
2022-10-08T14:47:42.787Z,98832.19
2022-10-08T14:50:10.036Z,98833.44
2022-10-08T14:52:41.885Z,98829.75
2022-10-08T14:55:11.505Z,98833.81
2022-10-08T14:57:38.633Z,98841.97
2022-10-08T15:00:06.211Z,98839.25
2022-10-08T15:02:34.547Z,98838.34
2022-10-08T15:05:01.986Z,98838.59
2022-10-08T15:07:28.972Z,98840.81
2022-10-08T15:09:56.026Z,98839.81
2022-10-08T15:12:23.162Z,98838.06
2022-10-08T15:14:50.076Z,98841.78
2022-10-08T15:17:17.134Z,98845.53
2022-10-08T15:19:44.004Z,98840.38
2022-10-08T15:22:11.153Z,98850.41
2022-10-08T15:24:38.284Z,98849.72
2022-10-08T15:27:05.067Z,98857.91
2022-10-08T15:29:31.869Z,98856.16
2022-10-08T15:31:58.903Z,98855.47
2022-10-08T15:34:25.779Z,98855.59
2022-10-08T15:36:55.754Z,98864.03
2022-10-08T15:39:22.947Z,98861.00
2022-10-08T15:41:52.760Z,98866.09
2022-10-08T15:44:23.766Z,98868.53
2022-10-08T15:47:02.826Z,98867.41
2022-10-08T15:49:31.393Z,98870.03
2022-10-08T15:51:59.203Z,98867.06
2022-10-08T15:54:26.011Z,98870.22
2022-10-08T15:56:52.920Z,98864.69
2022-10-08T15:59:20.058Z,98869.81
2022-10-08T16:01:46.890Z,98877.75
2022-10-08T16:04:14.246Z,98879.09
2022-10-08T16:06:45.535Z,98874.81
2022-10-08T16:09:19.263Z,98875.47
2022-10-08T16:11:47.403Z,98866.13
2022-10-08T16:14:16.848Z,98872.72
2022-10-08T16:16:44.368Z,98874.81
2022-10-08T16:19:17.805Z,98875.84
2022-10-08T16:21:46.318Z,98874.22
2022-10-08T16:24:13.835Z,98872.00
2022-10-08T16:26:42.057Z,98873.53
2022-10-08T16:29:12.874Z,98871.88
2022-10-08T16:31:41.293Z,98878.38
2022-10-08T16:34:20.878Z,98887.22
2022-10-08T16:36:48.619Z,98881.72
2022-10-08T16:39:18.300Z,98878.97
2022-10-08T16:41:46.673Z,98890.06
2022-10-08T16:44:16.193Z,98889.88
2022-10-08T16:46:44.111Z,98889.81
2022-10-08T16:49:24.529Z,98892.75
2022-10-08T16:51:58.672Z,98903.06
2022-10-08T16:54:26.286Z,98897.19
2022-10-08T16:56:53.706Z,98895.94
2022-10-08T16:59:23.238Z,98899.63
2022-10-08T17:01:52.873Z,98899.91
2022-10-08T17:04:21.335Z,98902.16
2022-10-08T17:06:48.395Z,98897.38
2022-10-08T17:09:15.368Z,98900.97
2022-10-08T17:11:42.683Z,98895.16
2022-10-08T17:14:10.425Z,98892.91
2022-10-08T17:16:38.372Z,98896.72
2022-10-08T17:19:05.921Z,98897.06
2022-10-08T17:21:35.086Z,98899.84
2022-10-08T17:24:02.925Z,98899.34
2022-10-08T17:26:31.522Z,98909.22
2022-10-08T17:29:05.917Z,98903.28
2022-10-08T17:31:33.979Z,98902.50
2022-10-08T17:34:02.474Z,98910.59
2022-10-08T17:36:31.924Z,98914.47
2022-10-08T17:39:01.084Z,98909.31
2022-10-08T17:41:30.030Z,98912.06
2022-10-08T17:43:59.297Z,98911.38
2022-10-08T17:46:32.366Z,98911.38
2022-10-08T17:48:59.378Z,98910.78
2022-10-08T17:51:29.834Z,98905.81
2022-10-08T17:54:02.348Z,98912.06
2022-10-08T17:56:30.113Z,98914.88
2022-10-08T17:58:57.554Z,98906.16
2022-10-08T18:01:31.999Z,98902.88
2022-10-08T18:04:04.245Z,98904.16
2022-10-08T18:06:32.627Z,98908.84
2022-10-08T18:09:02.053Z,98907.47
2022-10-08T18:11:31.335Z,98913.88
2022-10-08T18:13:58.619Z,98907.81
2022-10-08T18:16:25.548Z,98912.31
2022-10-08T18:18:52.816Z,98907.97
2022-10-08T18:21:20.606Z,98922.19
2022-10-08T18:23:49.612Z,98925.03
2022-10-08T18:26:25.452Z,98924.19
2022-10-08T18:28:55.400Z,98920.66
2022-10-08T18:31:25.760Z,98919.72
2022-10-08T18:33:57.301Z,98924.19
2022-10-08T18:36:27.314Z,98925.94
2022-10-08T18:38:56.842Z,98926.81
2022-10-08T18:41:29.039Z,98921.44
2022-10-08T18:43:57.370Z,98917.50
2022-10-08T18:46:24.256Z,98919.25
2022-10-08T18:48:51.395Z,98920.09
2022-10-08T18:51:21.598Z,98922.66
2022-10-08T18:53:49.840Z,98922.66
2022-10-08T18:56:19.983Z,98923.31
2022-10-08T18:58:47.462Z,98930.88
2022-10-08T19:01:26.193Z,98926.09
2022-10-08T19:03:56.194Z,98931.91
2022-10-08T19:06:26.408Z,98935.19
2022-10-08T19:08:55.321Z,98938.44
2022-10-08T19:11:26.021Z,98947.78
2022-10-08T19:13:53.947Z,98944.09
2022-10-08T19:16:21.575Z,98942.88
2022-10-08T19:18:57.728Z,98946.38
2022-10-08T19:21:26.104Z,98955.88
2022-10-08T19:23:53.321Z,98959.22
2022-10-08T19:26:20.482Z,98960.75
2022-10-08T19:28:49.984Z,98956.75
2022-10-08T19:31:31.819Z,98959.38
2022-10-08T19:34:00.892Z,98963.72
2022-10-08T19:36:31.010Z,98959.28
2022-10-08T19:39:00.051Z,98963.53
2022-10-08T19:41:27.994Z,98961.53
2022-10-08T19:43:57.301Z,98965.53
2022-10-08T19:46:25.312Z,98967.91
2022-10-08T19:48:55.003Z,98970.88
2022-10-08T19:51:22.463Z,98973.88
2022-10-08T19:53:50.020Z,98968.03
2022-10-08T19:56:18.459Z,98975.19
2022-10-08T19:58:48.704Z,98978.75
2022-10-08T20:01:19.225Z,98977.94
2022-10-08T20:03:47.017Z,98982.59
2022-10-08T20:06:24.107Z,98977.69
2022-10-08T20:08:56.522Z,98971.94
2022-10-08T20:11:24.062Z,98975.09
2022-10-08T20:13:52.239Z,98975.66
2022-10-08T20:16:31.186Z,98972.88
2022-10-08T20:19:01.001Z,98975.28
2022-10-08T20:21:30.150Z,98979.44
2022-10-08T20:23:57.063Z,98975.75
2022-10-08T20:26:35.410Z,98979.91
2022-10-08T20:29:05.516Z,98974.59
2022-10-08T20:31:39.236Z,98987.78
2022-10-08T20:34:09.846Z,98988.91
2022-10-08T20:36:36.776Z,98991.78
2022-10-08T20:39:03.925Z,98988.28
2022-10-08T20:41:31.522Z,98992.13
2022-10-08T20:44:03.016Z,98987.97
2022-10-08T20:46:31.693Z,98996.03
2022-10-08T20:48:59.262Z,98991.00
2022-10-08T20:51:27.357Z,98995.63
2022-10-08T20:53:56.901Z,98990.59
2022-10-08T20:56:25.358Z,98985.31
2022-10-08T20:58:53.324Z,98987.94
2022-10-08T21:01:25.749Z,98989.00
2022-10-08T21:03:54.503Z,98989.84
2022-10-08T21:06:23.798Z,98998.47
2022-10-08T21:08:52.945Z,98998.47
2022-10-08T21:11:24.089Z,99012.41
2022-10-08T21:13:51.438Z,99006.16
2022-10-08T21:16:27.406Z,99008.06
2022-10-08T21:19:00.152Z,99020.09
2022-10-08T21:21:28.495Z,99008.34
2022-10-08T21:23:56.003Z,99009.03
2022-10-08T21:26:27.048Z,99012.03
2022-10-08T21:28:57.077Z,99008.94
2022-10-08T21:31:25.617Z,99011.41
2022-10-08T21:33:53.243Z,99009.28
2022-10-08T21:36:23.133Z,99017.84
2022-10-08T21:38:50.483Z,99018.78
2022-10-08T21:41:18.817Z,99017.09
2022-10-08T21:43:54.312Z,99023.63
2022-10-08T21:46:24.429Z,99026.63
2022-10-08T21:48:55.938Z,99027.81
2022-10-08T21:51:23.309Z,99034.88
2022-10-08T21:53:52.882Z,99032.72
2022-10-08T21:56:22.861Z,99028.75
2022-10-08T21:58:52.444Z,99029.78
2022-10-08T22:01:54.462Z,99032.16
2022-10-08T22:04:23.600Z,99037.75
2022-10-08T22:06:57.775Z,99042.22
2022-10-08T22:09:27.840Z,99036.69
2022-10-08T22:11:56.581Z,99041.94
2022-10-08T22:14:23.932Z,99038.34
2022-10-08T22:16:51.247Z,99050.44
2022-10-08T22:19:18.261Z,99042.41
2022-10-08T22:21:45.057Z,99045.81
2022-10-08T22:24:12.577Z,99046.50
2022-10-08T22:26:42.471Z,99037.25
2022-10-08T22:29:09.738Z,99036.03
2022-10-08T22:31:37.824Z,99035.53
2022-10-08T22:34:05.575Z,99039.66
2022-10-08T22:36:37.503Z,99038.38
2022-10-08T22:39:04.503Z,99040.84
2022-10-08T22:41:33.320Z,99042.66
2022-10-08T22:44:00.757Z,99048.19
2022-10-08T22:46:30.785Z,99042.00
2022-10-08T22:49:03.973Z,99052.34
2022-10-08T22:51:31.123Z,99060.88
2022-10-08T22:53:58.348Z,99064.28
2022-10-08T22:56:29.018Z,99058.75
2022-10-08T22:58:57.759Z,99065.59
2022-10-08T23:01:25.983Z,99063.78
2022-10-08T23:03:53.223Z,99064.53
2022-10-08T23:06:26.191Z,99066.91
2022-10-08T23:09:01.603Z,99066.91
2022-10-08T23:11:29.648Z,99066.50
2022-10-08T23:13:57.494Z,99066.50
2022-10-08T23:16:26.416Z,99064.69
2022-10-08T23:19:02.455Z,99064.41
2022-10-08T23:21:30.316Z,99068.66
2022-10-08T23:23:57.822Z,99057.56
2022-10-08T23:26:26.044Z,99068.09
2022-10-08T23:28:55.372Z,99069.94
2022-10-08T23:31:25.559Z,99073.81
2022-10-08T23:33:53.970Z,99078.38
2022-10-08T23:36:24.298Z,99077.97
2022-10-08T23:38:52.119Z,99084.97
2022-10-08T23:41:19.471Z,99077.28
2022-10-08T23:43:48.298Z,99088.97
2022-10-08T23:46:18.568Z,99080.41
2022-10-08T23:48:45.564Z,99084.34
2022-10-08T23:51:13.628Z,99095.25
2022-10-08T23:53:41.805Z,99079.78
2022-10-08T23:56:09.762Z,99083.75
2022-10-08T23:58:36.616Z,99082.63
